createdAt,value
2022-09-06T00:00:59.918Z,93041.63
2022-09-06T00:03:29.565Z,93034.16
2022-09-06T00:05:56.063Z,93038.25
2022-09-06T00:08:22.572Z,93039.63
2022-09-06T00:11:01.152Z,93039.97
2022-09-06T00:13:28.580Z,93039.22
2022-09-06T00:15:55.276Z,93037.06
2022-09-06T00:18:22.415Z,93038.41
2022-09-06T00:20:49.016Z,93042.22
2022-09-06T00:23:15.525Z,93033.19
2022-09-06T00:25:42.068Z,93034.34
2022-09-06T00:28:08.606Z,93029.09
2022-09-06T00:30:35.176Z,93036.22
2022-09-06T00:33:01.725Z,93030.63
2022-09-06T00:35:29.117Z,93028.34
2022-09-06T00:38:01.959Z,93036.78
2022-09-06T00:40:30.376Z,93037.59
2022-09-06T00:42:57.682Z,93046.88
2022-09-06T00:45:26.411Z,93040.06
2022-09-06T00:47:52.993Z,93042.59
2022-09-06T00:50:19.920Z,93031.03
2022-09-06T00:52:50.988Z,93032.38
2022-09-06T00:55:18.212Z,93041.13
2022-09-06T00:57:46.561Z,93034.25
2022-09-06T01:00:13.504Z,93028.75
2022-09-06T01:02:40.115Z,93028.03
2022-09-06T01:05:07.188Z,93041.19
2022-09-06T01:07:59.806Z,93029.53
2022-09-06T01:11:03.930Z,93035.69
2022-09-06T01:14:21.536Z,93045.63
2022-09-06T01:17:25.259Z,93034.75
2022-09-06T01:20:21.850Z,93048.84
2022-09-06T01:23:04.710Z,93049.44
2022-09-06T01:26:15.814Z,93049.75
2022-09-06T01:28:49.264Z,93045.03
2022-09-06T01:31:24.944Z,93056.13
2022-09-06T01:34:03.655Z,93056.38
2022-09-06T01:36:45.809Z,93064.06
2022-09-06T01:39:28.436Z,93058.47
2022-09-06T01:41:57.857Z,93056.06
2022-09-06T01:44:27.259Z,93050.19
2022-09-06T01:46:57.874Z,93058.06
2022-09-06T01:49:52.720Z,93049.03
2022-09-06T01:52:35.587Z,93051.69
2022-09-06T01:55:17.009Z,93055.94
2022-09-06T01:58:09.150Z,93047.84
2022-09-06T02:00:45.185Z,93049.75
2022-09-06T02:03:30.488Z,93054.47
2022-09-06T02:06:09.495Z,93056.63
2022-09-06T02:08:41.059Z,93057.69
2022-09-06T02:11:09.286Z,93059.44
2022-09-06T02:13:47.668Z,93055.56
2022-09-06T02:16:17.540Z,93058.53
2022-09-06T02:18:59.246Z,93059.16
2022-09-06T02:21:33.188Z,93056.78
2022-09-06T02:24:03.109Z,93056.53
2022-09-06T02:26:35.483Z,93048.47
2022-09-06T02:29:02.185Z,93049.75
2022-09-06T02:31:33.773Z,93048.41
2022-09-06T02:34:01.014Z,93050.09
2022-09-06T02:36:29.811Z,93049.16
2022-09-06T02:38:57.138Z,93051.28
2022-09-06T02:41:24.928Z,93043.34
2022-09-06T02:43:51.453Z,93040.66
2022-09-06T02:46:18.026Z,93048.59
2022-09-06T02:48:44.606Z,93039.63
2022-09-06T02:51:11.192Z,93039.56
2022-09-06T02:53:37.995Z,93031.06
2022-09-06T02:56:04.652Z,93023.06
2022-09-06T02:58:31.265Z,93026.72
2022-09-06T03:00:58.013Z,93030.97
2022-09-06T03:03:25.065Z,93030.91
2022-09-06T03:05:52.684Z,93033.03
2022-09-06T03:08:21.284Z,93035.19
2022-09-06T03:10:52.091Z,93037.25
2022-09-06T03:13:18.882Z,93035.13
2022-09-06T03:15:49.496Z,93032.47
2022-09-06T03:18:15.989Z,93030.06
2022-09-06T03:20:42.567Z,93037.13
2022-09-06T03:23:09.556Z,93032.63
2022-09-06T03:25:36.065Z,93031.56
2022-09-06T03:28:03.092Z,93033.63
2022-09-06T03:30:29.686Z,93037.09
2022-09-06T03:32:57.500Z,93033.38
2022-09-06T03:35:26.350Z,93028.56
2022-09-06T03:37:52.946Z,93027.00
2022-09-06T03:40:19.483Z,93025.44
2022-09-06T03:42:46.555Z,93025.03
2022-09-06T03:45:13.413Z,93024.13
2022-09-06T03:47:39.992Z,93021.81
2022-09-06T03:50:07.275Z,93027.94
2022-09-06T03:52:33.782Z,93016.00
2022-09-06T03:55:00.300Z,93014.41
2022-09-06T03:57:26.777Z,93015.84
2022-09-06T03:59:53.292Z,93014.25
2022-09-06T04:02:19.827Z,93027.47
2022-09-06T04:04:46.553Z,93016.94
2022-09-06T04:07:13.157Z,93023.88
2022-09-06T04:09:39.632Z,93017.22
2022-09-06T04:12:06.375Z,93020.59
2022-09-06T04:14:32.901Z,93016.34
2022-09-06T04:16:59.461Z,93014.75
2022-09-06T04:19:25.984Z,93024.53
2022-09-06T04:21:52.469Z,93026.41
2022-09-06T04:24:18.947Z,93022.72
2022-09-06T04:26:45.421Z,93021.66
2022-09-06T04:29:11.914Z,93016.09
2022-09-06T04:31:38.493Z,93024.31
2022-09-06T04:34:05.023Z,93025.38
2022-09-06T04:36:31.560Z,93016.91
2022-09-06T04:38:58.080Z,93020.75
2022-09-06T04:41:24.614Z,93030.72
2022-09-06T04:43:51.214Z,93022.50
2022-09-06T04:46:22.352Z,93027.34
2022-09-06T04:48:49.411Z,93040.09
2022-09-06T04:51:16.082Z,93031.81
2022-09-06T04:53:42.722Z,93027.34
2022-09-06T04:56:15.952Z,93031.34
2022-09-06T04:58:44.289Z,93029.72
2022-09-06T05:01:11.347Z,93036.06
2022-09-06T05:03:38.024Z,93034.72
2022-09-06T05:06:18.879Z,93028.88
2022-09-06T05:08:45.383Z,93035.25
2022-09-06T05:11:12.355Z,93037.59
2022-09-06T05:13:39.454Z,93031.22
2022-09-06T05:16:07.537Z,93032.31
2022-09-06T05:18:34.917Z,93029.38
2022-09-06T05:21:01.921Z,93031.75
2022-09-06T05:23:28.746Z,93036.53
2022-09-06T05:25:55.330Z,93027.56
2022-09-06T05:28:22.264Z,93034.94
2022-09-06T05:30:48.789Z,93033.63
2022-09-06T05:33:21.861Z,93045.53
2022-09-06T05:35:48.835Z,93038.09
2022-09-06T05:38:15.599Z,93050.75
2022-09-06T05:40:42.306Z,93055.72
2022-09-06T05:43:08.774Z,93050.66
2022-09-06T05:45:35.350Z,93056.97
2022-09-06T05:48:02.045Z,93058.47
2022-09-06T05:50:28.556Z,93060.00
2022-09-06T05:52:55.046Z,93062.81
2022-09-06T05:55:21.679Z,93056.13
2022-09-06T05:57:48.190Z,93057.84
2022-09-06T06:00:14.911Z,93064.94
2022-09-06T06:02:41.568Z,93061.22
2022-09-06T06:05:08.420Z,93058.50
2022-09-06T06:07:35.160Z,93063.72
2022-09-06T06:10:01.703Z,93061.16
2022-09-06T06:12:28.226Z,93060.81
2022-09-06T06:14:54.772Z,93055.66
2022-09-06T06:17:21.378Z,93062.69
2022-09-06T06:19:48.045Z,93064.72
2022-09-06T06:22:14.534Z,93062.22
2022-09-06T06:24:41.008Z,93067.34
2022-09-06T06:27:07.502Z,93076.41
2022-09-06T06:29:34.102Z,93068.59
2022-09-06T06:32:00.709Z,93062.16
2022-09-06T06:34:27.352Z,93061.09
2022-09-06T06:36:53.872Z,93064.84
2022-09-06T06:39:21.298Z,93065.94
2022-09-06T06:41:49.709Z,93067.25
2022-09-06T06:44:45.342Z,93063.44
2022-09-06T06:47:11.819Z,93061.84
2022-09-06T06:49:38.356Z,93059.50
2022-09-06T06:52:04.911Z,93063.22
2022-09-06T06:54:31.604Z,93065.94
2022-09-06T06:56:58.096Z,93061.97
2022-09-06T06:59:24.705Z,93054.56
2022-09-06T07:01:51.373Z,93057.31
2022-09-06T07:04:18.034Z,93059.16
2022-09-06T07:12:25.294Z,93057.44
2022-09-06T07:14:51.796Z,93058.47
2022-09-06T07:17:18.258Z,93057.78
2022-09-06T07:22:31.231Z,93057.13
2022-09-06T07:24:57.728Z,93063.78
2022-09-06T07:30:11.404Z,93056.94
2022-09-06T07:32:38.149Z,93055.69
2022-09-06T07:35:05.169Z,93057.28
2022-09-06T07:37:31.657Z,93058.88
2022-09-06T07:39:58.245Z,93063.00
2022-09-06T07:42:24.750Z,93070.22
2022-09-06T07:44:51.250Z,93066.75
2022-09-06T07:53:08.559Z,93074.34
2022-09-06T07:55:37.838Z,93073.25
2022-09-06T07:58:04.346Z,93069.03
2022-09-06T08:00:31.672Z,93069.81
2022-09-06T08:02:58.740Z,93065.25
2022-09-06T08:10:58.223Z,93071.19
2022-09-06T08:13:24.749Z,93068.34
2022-09-06T08:15:59.289Z,93078.53
2022-09-06T08:18:26.071Z,93068.66
2022-09-06T08:20:52.620Z,93074.13
2022-09-06T08:23:19.248Z,93073.84
2022-09-06T08:25:56.830Z,93066.13
2022-09-06T08:28:26.805Z,93076.16
2022-09-06T08:30:55.276Z,93078.69
2022-09-06T08:33:25.414Z,93079.94
2022-09-06T08:35:58.642Z,93085.28
2022-09-06T08:38:26.183Z,93082.94
2022-09-06T08:40:54.314Z,93093.78
2022-09-06T08:43:22.618Z,93098.66
2022-09-06T08:45:55.964Z,93104.16
2022-09-06T08:48:26.103Z,93109.19
2022-09-06T08:51:24.668Z,93112.00
2022-09-06T08:53:56.760Z,93111.41
2022-09-06T08:56:27.136Z,93121.91
2022-09-06T08:58:59.707Z,93120.81
2022-09-06T09:01:34.290Z,93126.00
2022-09-06T09:04:05.414Z,93119.56
2022-09-06T09:06:33.437Z,93130.56
2022-09-06T09:09:09.280Z,93131.50
2022-09-06T09:11:36.338Z,93137.47
2022-09-06T09:14:08.709Z,93131.19
2022-09-06T09:16:35.484Z,93125.34
2022-09-06T09:19:04.979Z,93120.66
2022-09-06T09:21:34.314Z,93111.72
2022-09-06T09:24:09.352Z,93110.16
2022-09-06T09:26:51.823Z,93109.69
2022-09-06T09:29:20.860Z,93109.34
2022-09-06T09:31:54.036Z,93102.94
2022-09-06T09:34:35.488Z,93096.97
2022-09-06T09:40:28.985Z,93085.66
2022-09-06T09:43:08.812Z,93083.94
2022-09-06T09:45:35.306Z,93087.06
2022-09-06T09:48:20.558Z,93086.94
2022-09-06T09:50:47.992Z,93082.38
2022-09-06T09:53:18.205Z,93076.56
2022-09-06T09:55:45.941Z,93076.09
2022-09-06T09:58:22.873Z,93078.41
2022-09-06T10:01:10.054Z,93079.66
2022-09-06T10:09:19.173Z,93071.00
2022-09-06T10:11:52.692Z,93061.88
2022-09-06T10:14:49.234Z,93052.25
2022-09-06T10:17:51.842Z,93046.91
2022-09-06T10:20:19.021Z,93045.50
2022-09-06T10:23:01.791Z,93049.41
2022-09-06T10:25:49.007Z,93042.50
2022-09-06T10:28:36.984Z,93048.50
2022-09-06T10:31:10.167Z,93050.06
2022-09-06T10:34:07.303Z,93039.06
2022-09-06T10:36:36.928Z,93036.22
2022-09-06T10:39:43.761Z,93034.31
2022-09-06T10:42:36.462Z,93039.81
2022-09-06T10:45:13.217Z,93035.25
2022-09-06T10:48:02.871Z,93038.28
2022-09-06T10:50:41.774Z,93026.19
2022-09-06T10:53:16.816Z,93033.94
2022-09-06T10:55:49.181Z,93030.28
2022-09-06T10:58:23.448Z,93027.53
2022-09-06T11:00:52.500Z,93024.22
2022-09-06T11:06:17.309Z,93022.75
2022-09-06T11:09:00.096Z,93026.81
2022-09-06T11:11:54.349Z,93019.66
2022-09-06T11:14:22.702Z,93017.88
2022-09-06T11:16:57.656Z,93019.03
2022-09-06T11:19:32.304Z,93016.13
2022-09-06T11:22:01.650Z,93011.22
2022-09-06T11:24:40.820Z,93017.34
2022-09-06T11:27:28.597Z,93015.66
2022-09-06T11:29:56.603Z,93015.97
2022-09-06T11:32:35.478Z,93011.16
2022-09-06T11:35:07.386Z,93023.00
2022-09-06T11:37:39.576Z,93012.03
2022-09-06T11:40:30.398Z,93013.81
2022-09-06T11:42:59.261Z,93018.25
2022-09-06T11:45:51.288Z,93024.22
2022-09-06T11:48:23.830Z,93026.81
2022-09-06T11:50:59.077Z,93034.88
2022-09-06T11:53:31.034Z,93021.44
2022-09-06T11:56:00.375Z,93023.38
2022-09-06T11:58:33.867Z,93027.00
2022-09-06T12:01:12.196Z,93025.88
2022-09-06T12:06:37.533Z,93039.97
2022-09-06T12:09:37.585Z,93043.13
2022-09-06T12:12:04.663Z,93038.19
2022-09-06T12:14:41.495Z,93034.00
2022-09-06T12:17:08.856Z,93035.56
2022-09-06T12:19:49.205Z,93042.75
2022-09-06T12:22:27.686Z,93042.13
2022-09-06T12:25:02.115Z,93036.66
2022-09-06T12:27:32.386Z,93031.19
2022-09-06T12:30:01.831Z,93038.91
2022-09-06T12:32:36.938Z,93028.25
2022-09-06T12:37:59.879Z,93030.50
2022-09-06T12:40:30.249Z,93026.69
2022-09-06T12:42:57.172Z,93027.47
2022-09-06T12:45:27.536Z,93027.72
2022-09-06T12:48:09.234Z,93033.19
2022-09-06T12:50:36.352Z,93023.06
2022-09-06T12:53:17.253Z,93012.06
2022-09-06T12:55:45.193Z,93016.06
2022-09-06T12:58:12.480Z,93010.00
2022-09-06T13:00:51.560Z,93009.00
2022-09-06T13:03:29.404Z,93004.44
2022-09-06T13:05:57.441Z,93004.09
2022-09-06T13:08:34.550Z,93002.47
2022-09-06T13:11:03.642Z,92994.78
2022-09-06T13:13:30.205Z,92999.69
2022-09-06T13:15:57.220Z,92986.22
2022-09-06T13:18:32.972Z,92994.88
2022-09-06T13:21:15.680Z,92990.22
2022-09-06T13:23:47.743Z,92981.53
2022-09-06T13:26:14.762Z,92979.09
2022-09-06T13:28:41.516Z,92973.25
2022-09-06T13:31:10.775Z,92965.63
2022-09-06T13:33:37.876Z,92966.50
2022-09-06T13:36:13.485Z,92966.16
2022-09-06T13:38:40.697Z,92959.19
2022-09-06T13:41:27.360Z,92960.06
2022-09-06T13:44:03.259Z,92956.34
2022-09-06T13:46:30.252Z,92957.13
2022-09-06T13:48:57.498Z,92952.03
2022-09-06T13:51:24.596Z,92959.13
2022-09-06T13:53:51.113Z,92957.47
2022-09-06T13:56:17.772Z,92958.88
2022-09-06T13:58:45.143Z,92954.09
2022-09-06T14:01:12.046Z,92947.78
2022-09-06T14:03:41.820Z,92953.00
2022-09-06T14:06:09.882Z,92946.13
2022-09-06T14:09:02.945Z,92943.16
2022-09-06T14:11:25.430Z,92939.38
2022-09-06T14:13:51.936Z,92934.56
2022-09-06T14:16:18.610Z,92938.25
2022-09-06T14:18:45.224Z,92934.28
2022-09-06T14:21:12.268Z,92943.44
2022-09-06T14:23:38.800Z,92938.31
2022-09-06T14:26:05.528Z,92946.09
2022-09-06T14:28:33.858Z,92936.66
2022-09-06T14:31:14.679Z,92934.03
2022-09-06T14:33:41.271Z,92934.09
2022-09-06T14:36:19.823Z,92924.47
2022-09-06T14:38:47.263Z,92921.34
2022-09-06T14:41:16.062Z,92919.03
2022-09-06T14:43:43.770Z,92921.31
2022-09-06T14:46:14.180Z,92920.00
2022-09-06T14:48:42.780Z,92918.50
2022-09-06T14:51:10.790Z,92917.94
2022-09-06T14:53:42.408Z,92914.81
2022-09-06T14:56:10.226Z,92911.72
2022-09-06T14:58:38.614Z,92901.56
2022-09-06T15:01:11.765Z,92901.06
2022-09-06T15:03:39.851Z,92899.81
2022-09-06T15:06:06.824Z,92903.31
2022-09-06T15:08:33.388Z,92901.09
2022-09-06T15:11:01.074Z,92901.91
2022-09-06T15:13:28.427Z,92909.66
2022-09-06T15:15:55.783Z,92909.66
2022-09-06T15:18:23.402Z,92898.28
2022-09-06T15:20:50.542Z,92898.88
2022-09-06T15:23:25.655Z,92902.06
2022-09-06T15:25:52.436Z,92898.44
2022-09-06T15:28:19.634Z,92888.84
2022-09-06T15:30:46.949Z,92892.47
2022-09-06T15:33:14.983Z,92891.47
2022-09-06T15:35:44.770Z,92890.94
2022-09-06T15:38:12.393Z,92884.31
2022-09-06T15:40:39.102Z,92878.13
2022-09-06T15:43:05.701Z,92882.72
2022-09-06T15:45:46.145Z,92883.75
2022-09-06T15:48:12.824Z,92877.13
2022-09-06T15:50:50.880Z,92884.16
2022-09-06T15:53:18.391Z,92881.72
2022-09-06T15:55:57.139Z,92863.75
2022-09-06T15:58:25.232Z,92857.31
2022-09-06T16:01:02.126Z,92866.28
2022-09-06T16:03:28.838Z,92866.44
2022-09-06T16:08:58.501Z,92852.25
2022-09-06T16:11:26.559Z,92852.38
2022-09-06T16:13:53.190Z,92849.78
2022-09-06T16:16:21.520Z,92837.25
2022-09-06T16:18:48.473Z,92835.03
2022-09-06T16:21:21.567Z,92824.19
2022-09-06T16:23:50.706Z,92825.09
2022-09-06T16:26:21.298Z,92824.63
2022-09-06T16:28:50.215Z,92816.38
2022-09-06T16:31:17.715Z,92816.00
2022-09-06T16:33:45.560Z,92809.53
2022-09-06T16:36:13.897Z,92802.44
2022-09-06T16:38:41.407Z,92807.50
2022-09-06T16:41:20.728Z,92806.91
2022-09-06T16:43:49.318Z,92806.41
2022-09-06T16:46:16.818Z,92815.66
2022-09-06T16:48:43.529Z,92813.41
2022-09-06T16:51:17.620Z,92820.03
2022-09-06T16:53:46.508Z,92816.13
2022-09-06T16:56:16.120Z,92820.44
2022-09-06T16:58:43.703Z,92818.34
2022-09-06T17:01:10.792Z,92819.41
2022-09-06T17:03:38.335Z,92817.88
2022-09-06T17:06:06.783Z,92821.50
2022-09-06T17:08:34.312Z,92816.47
2022-09-06T17:11:06.510Z,92816.31
2022-09-06T17:13:33.279Z,92818.78
2022-09-06T17:16:22.094Z,92816.66
2022-09-06T17:18:49.343Z,92811.94
2022-09-06T17:21:16.517Z,92804.22
2022-09-06T17:23:43.544Z,92804.69
2022-09-06T17:26:10.082Z,92799.31
2022-09-06T17:28:39.613Z,92794.78
2022-09-06T17:31:07.601Z,92788.28
2022-09-06T17:33:35.261Z,92782.09
2022-09-06T17:36:07.117Z,92788.38
2022-09-06T17:38:34.487Z,92784.88
2022-09-06T17:41:02.164Z,92788.59
2022-09-06T17:43:28.861Z,92786.94
2022-09-06T17:45:55.391Z,92781.00
2022-09-06T17:48:22.041Z,92775.53
2022-09-06T17:50:48.791Z,92785.19
2022-09-06T17:53:15.345Z,92788.09
2022-09-06T17:55:44.352Z,92777.59
2022-09-06T17:58:11.083Z,92786.56
2022-09-06T18:00:40.281Z,92781.22
2022-09-06T18:03:07.948Z,92785.16
2022-09-06T18:05:39.710Z,92779.34
2022-09-06T18:08:07.815Z,92781.47
2022-09-06T18:10:37.930Z,92778.13
2022-09-06T18:13:06.014Z,92779.34
2022-09-06T18:15:38.078Z,92781.00
2022-09-06T18:18:04.685Z,92783.19
2022-09-06T18:20:31.216Z,92794.97
2022-09-06T18:22:58.060Z,92806.00
2022-09-06T18:25:24.651Z,92808.69
2022-09-06T18:27:51.200Z,92805.66
2022-09-06T18:30:17.883Z,92809.44
2022-09-06T18:32:44.765Z,92813.88
2022-09-06T18:35:11.465Z,92804.38
2022-09-06T18:37:38.669Z,92804.25
2022-09-06T18:42:36.000Z,92813.91
2022-09-06T18:45:02.533Z,92820.34
2022-09-06T18:47:29.016Z,92825.13
2022-09-06T18:49:55.639Z,92828.56
2022-09-06T18:52:22.171Z,92823.56
2022-09-06T18:54:49.389Z,92826.31
2022-09-06T18:57:17.194Z,92826.56
2022-09-06T18:59:44.625Z,92820.16
2022-09-06T19:02:11.454Z,92834.78
2022-09-06T19:04:38.183Z,92834.19
2022-09-06T19:07:04.770Z,92836.53
2022-09-06T19:09:31.405Z,92831.84
2022-09-06T19:11:57.893Z,92832.81
2022-09-06T19:14:24.475Z,92825.91
2022-09-06T19:16:53.752Z,92829.88
2022-09-06T19:19:21.772Z,92825.63
2022-09-06T19:21:48.254Z,92823.91
2022-09-06T19:24:16.008Z,92831.13
2022-09-06T19:26:44.383Z,92827.88
2022-09-06T19:29:16.065Z,92836.41
2022-09-06T19:31:43.478Z,92842.09
2022-09-06T19:34:12.192Z,92834.78
2022-09-06T19:36:39.166Z,92829.16
2022-09-06T19:39:08.133Z,92836.84
2022-09-06T19:41:38.290Z,92842.50
2022-09-06T19:44:07.742Z,92833.06
2022-09-06T19:46:35.178Z,92835.13
2022-09-06T19:49:02.353Z,92836.56
2022-09-06T19:51:29.538Z,92839.91
2022-09-06T19:54:00.433Z,92840.09
2022-09-06T19:56:33.659Z,92839.66
2022-09-06T19:59:02.383Z,92836.22
2022-09-06T20:01:31.438Z,92835.59
2022-09-06T20:03:59.861Z,92837.78
2022-09-06T20:06:27.145Z,92832.44
2022-09-06T20:08:56.116Z,92824.28
2022-09-06T20:11:25.798Z,92822.91
2022-09-06T20:13:52.892Z,92825.88
2022-09-06T20:16:20.977Z,92827.00
2022-09-06T20:18:48.413Z,92824.50
2022-09-06T20:21:15.269Z,92823.09
2022-09-06T20:23:41.840Z,92817.78
2022-09-06T20:26:14.938Z,92822.00
2022-09-06T20:28:42.246Z,92808.69
2022-09-06T20:31:11.480Z,92811.66
2022-09-06T20:33:38.178Z,92815.28
2022-09-06T20:36:07.077Z,92806.69
2022-09-06T20:38:39.210Z,92804.50
2022-09-06T20:41:08.568Z,92803.84
2022-09-06T20:43:36.871Z,92803.69
2022-09-06T20:46:16.844Z,92818.75
2022-09-06T20:48:45.383Z,92817.66
2022-09-06T20:51:18.882Z,92824.06
2022-09-06T20:53:48.454Z,92817.50
2022-09-06T20:56:17.891Z,92815.63
2022-09-06T20:58:51.956Z,92812.78
2022-09-06T21:01:22.978Z,92818.59
2022-09-06T21:03:52.568Z,92819.69
2022-09-06T21:06:20.411Z,92817.81
2022-09-06T21:08:47.913Z,92820.31
2022-09-06T21:11:14.542Z,92825.81
2022-09-06T21:13:41.135Z,92829.06
2022-09-06T21:16:07.759Z,92822.94
2022-09-06T21:18:35.723Z,92817.81
2022-09-06T21:21:07.310Z,92815.63
2022-09-06T21:23:36.419Z,92818.75
2022-09-06T21:26:10.027Z,92819.06
2022-09-06T21:28:38.932Z,92822.34
2022-09-06T21:31:17.310Z,92812.03
2022-09-06T21:33:46.340Z,92820.47
2022-09-06T21:36:17.741Z,92820.94
2022-09-06T21:38:46.946Z,92821.59
2022-09-06T21:41:15.279Z,92824.38
2022-09-06T21:43:42.856Z,92820.31
2022-09-06T21:46:15.303Z,92821.59
2022-09-06T21:48:44.384Z,92826.91
2022-09-06T21:51:15.222Z,92825.19
2022-09-06T21:53:43.744Z,92831.59
2022-09-06T21:56:10.724Z,92834.72
2022-09-06T21:58:37.458Z,92835.66
2022-09-06T22:01:05.142Z,92841.91
2022-09-06T22:03:35.181Z,92845.53
2022-09-06T22:06:13.835Z,92850.72
2022-09-06T22:08:43.915Z,92847.09
2022-09-06T22:11:14.863Z,92857.44
2022-09-06T22:13:42.173Z,92851.16
2022-09-06T22:16:09.794Z,92852.56
2022-09-06T22:18:37.069Z,92847.56
2022-09-06T22:21:09.374Z,92846.13
2022-09-06T22:23:36.409Z,92844.56
2022-09-06T22:26:07.949Z,92843.78
2022-09-06T22:28:34.630Z,92830.94
2022-09-06T22:31:01.878Z,92828.72
2022-09-06T22:33:28.866Z,92819.63
2022-09-06T22:35:55.652Z,92820.72
2022-09-06T22:38:22.216Z,92812.09
2022-09-06T22:40:49.205Z,92817.44
2022-09-06T22:43:15.878Z,92818.06
2022-09-06T22:45:49.797Z,92805.84
2022-09-06T22:48:18.178Z,92803.63
2022-09-06T22:50:44.623Z,92797.84
2022-09-06T22:53:11.518Z,92808.81
2022-09-06T22:55:38.781Z,92805.38
2022-09-06T22:58:05.875Z,92806.16
2022-09-06T23:00:36.166Z,92786.72
2022-09-06T23:03:02.874Z,92790.16
2022-09-06T23:05:31.525Z,92787.69
2022-09-06T23:08:00.206Z,92776.88
2022-09-06T23:10:27.478Z,92775.16
2022-09-06T23:12:54.692Z,92779.88
2022-09-06T23:15:21.651Z,92775.16
2022-09-06T23:17:48.144Z,92774.53
2022-09-06T23:20:14.753Z,92775.75
2022-09-06T23:22:41.237Z,92771.69
2022-09-06T23:25:08.679Z,92761.03
2022-09-06T23:27:35.187Z,92756.19
2022-09-06T23:30:03.190Z,92751.81
2022-09-06T23:32:32.089Z,92758.22
2022-09-06T23:34:58.769Z,92756.53
2022-09-06T23:37:25.244Z,92763.28
2022-09-06T23:39:52.578Z,92758.56
2022-09-06T23:42:19.888Z,92753.53
2022-09-06T23:44:46.389Z,92750.56
2022-09-06T23:47:12.864Z,92748.66
2022-09-06T23:49:39.359Z,92747.75
2022-09-06T23:52:06.151Z,92745.72
2022-09-06T23:54:32.707Z,92744.16
2022-09-06T23:56:59.300Z,92747.91
2022-09-06T23:59:25.795Z,92746.34
